createdAt,value
2022-12-23T00:01:25.687Z,8.25
2022-12-23T00:03:58.423Z,8.13
2022-12-23T00:06:27.485Z,8.03
2022-12-23T00:08:58.941Z,7.79
2022-12-23T00:11:29.033Z,7.25
2022-12-23T00:14:21.235Z,7.11
2022-12-23T00:16:51.174Z,6.89
2022-12-23T00:19:19.449Z,6.82
2022-12-23T00:21:48.771Z,6.88
2022-12-23T00:24:17.294Z,7.06
2022-12-23T00:26:45.581Z,6.93
2022-12-23T00:29:13.949Z,7.09
2022-12-23T00:31:42.096Z,7.34
2022-12-23T00:34:12.299Z,7.52
2022-12-23T00:36:41.053Z,7.61
2022-12-23T00:39:31.398Z,7.75
2022-12-23T00:42:17.948Z,7.58
2022-12-23T00:44:46.180Z,7.57
2022-12-23T00:47:34.171Z,7.58
2022-12-23T00:50:02.307Z,7.59
2022-12-23T00:52:30.645Z,7.44
2022-12-23T00:54:58.751Z,7.44
2022-12-23T00:57:27.099Z,7.59
2022-12-23T00:59:55.095Z,7.48
2022-12-23T01:02:41.765Z,7.41
2022-12-23T01:05:29.859Z,7.25
2022-12-23T01:07:58.283Z,7.15
2022-12-23T01:10:26.486Z,7.18
2022-12-23T01:12:54.762Z,7.20
2022-12-23T01:15:23.513Z,7.00
2022-12-23T01:17:51.827Z,6.96
2022-12-23T01:20:20.507Z,7.22
2022-12-23T01:22:48.611Z,7.37
2022-12-23T01:25:18.357Z,7.58
2022-12-23T01:27:46.459Z,7.67
2022-12-23T01:30:14.674Z,7.78
2022-12-23T01:32:42.917Z,7.87
2022-12-23T01:35:11.120Z,7.88
2022-12-23T01:37:39.355Z,7.68
2022-12-23T01:40:09.334Z,7.64
2022-12-23T01:42:47.560Z,7.43
2022-12-23T01:45:23.843Z,7.31
2022-12-23T01:48:00.622Z,7.31
2022-12-23T01:50:38.233Z,7.43
2022-12-23T01:53:15.168Z,7.47
2022-12-23T01:55:51.089Z,7.49
2022-12-23T01:58:32.285Z,7.57
2022-12-23T02:01:20.616Z,7.60
2022-12-23T02:03:50.810Z,7.70
2022-12-23T02:06:42.474Z,7.79
2022-12-23T02:09:21.783Z,7.81
2022-12-23T02:11:58.934Z,7.62
2022-12-23T02:14:57.885Z,7.42
2022-12-23T02:17:45.856Z,7.60
2022-12-23T02:20:23.397Z,7.63
2022-12-23T02:23:13.536Z,7.26
2022-12-23T02:26:00.734Z,7.13
2022-12-23T02:28:53.500Z,7.25
2022-12-23T02:31:42.933Z,7.33
2022-12-23T02:34:17.037Z,7.44
2022-12-23T02:36:57.683Z,7.54
2022-12-23T02:39:54.335Z,7.64
2022-12-23T02:42:37.417Z,7.65
2022-12-23T02:45:10.205Z,7.62
2022-12-23T02:47:44.675Z,7.54
2022-12-23T02:50:19.451Z,7.28
2022-12-23T02:52:49.892Z,6.77
2022-12-23T02:55:26.342Z,6.69
2022-12-23T02:57:57.793Z,6.59
2022-12-23T03:00:25.833Z,6.61
2022-12-23T03:02:54.094Z,6.55
2022-12-23T03:05:50.120Z,6.39
2022-12-23T03:08:26.731Z,6.41
2022-12-23T03:11:08.724Z,6.55
2022-12-23T03:14:15.005Z,6.62
2022-12-23T03:16:45.950Z,6.72
2022-12-23T03:19:32.646Z,6.72
2022-12-23T03:22:19.691Z,6.63
2022-12-23T03:24:52.764Z,6.44
2022-12-23T03:27:41.786Z,6.31
2022-12-23T03:30:17.243Z,6.20
2022-12-23T03:33:01.145Z,5.94
2022-12-23T03:35:43.966Z,5.82
2022-12-23T03:38:15.033Z,5.92
2022-12-23T03:40:47.644Z,6.01
2022-12-23T03:43:23.873Z,5.98
2022-12-23T03:46:01.057Z,5.88
2022-12-23T03:48:48.385Z,5.73
2022-12-23T03:51:39.797Z,5.63
2022-12-23T03:54:18.086Z,5.77
2022-12-23T03:56:57.325Z,5.85
2022-12-23T03:59:27.809Z,5.96
2022-12-23T04:02:20.581Z,6.20
2022-12-23T04:04:48.982Z,6.07
2022-12-23T04:07:22.667Z,5.97
2022-12-23T04:09:54.873Z,5.95
2022-12-23T04:12:25.121Z,5.86
2022-12-23T04:14:53.692Z,5.83
2022-12-23T04:17:22.039Z,6.11
2022-12-23T04:19:52.198Z,6.11
2022-12-23T04:22:20.231Z,6.39
2022-12-23T04:24:48.306Z,6.82
2022-12-23T04:27:16.708Z,7.18
2022-12-23T04:29:44.971Z,7.34
2022-12-23T04:32:13.027Z,7.30
2022-12-23T04:34:41.082Z,7.24
2022-12-23T04:37:10.542Z,7.05
2022-12-23T04:39:38.702Z,6.98
2022-12-23T04:42:06.830Z,7.21
2022-12-23T04:44:34.917Z,7.44
2022-12-23T04:47:03.223Z,7.64
2022-12-23T04:49:32.154Z,7.54
2022-12-23T04:52:00.606Z,7.74
2022-12-23T04:54:28.780Z,7.97
2022-12-23T04:56:57.105Z,8.18
2022-12-23T04:59:25.103Z,8.44
2022-12-23T05:01:53.400Z,8.57
2022-12-23T05:04:21.582Z,8.52
2022-12-23T05:06:50.832Z,8.17
2022-12-23T05:09:19.101Z,7.98
2022-12-23T05:11:47.266Z,7.98
2022-12-23T05:14:15.430Z,8.00
2022-12-23T05:16:43.624Z,8.01
2022-12-23T05:19:12.208Z,8.21
2022-12-23T05:21:40.378Z,8.40
2022-12-23T05:24:08.869Z,8.14
2022-12-23T05:26:37.170Z,7.90
2022-12-23T05:29:06.234Z,7.67
2022-12-23T05:31:34.418Z,7.45
2022-12-23T05:34:06.562Z,7.44
2022-12-23T05:36:35.243Z,7.51
2022-12-23T05:39:03.623Z,7.65
2022-12-23T05:41:31.998Z,7.77
2022-12-23T05:44:00.098Z,7.81
2022-12-23T05:46:28.139Z,7.56
2022-12-23T05:48:56.303Z,7.33
2022-12-23T05:51:24.656Z,7.28
2022-12-23T05:53:52.991Z,6.95
2022-12-23T05:56:21.028Z,7.07
2022-12-23T05:58:49.181Z,7.26
2022-12-23T06:01:17.231Z,7.35
2022-12-23T06:03:45.331Z,7.14
2022-12-23T06:06:14.269Z,7.05
2022-12-23T06:08:42.285Z,7.19
2022-12-23T06:11:10.473Z,7.40
2022-12-23T06:13:38.762Z,7.59
2022-12-23T06:16:07.332Z,7.58
2022-12-23T06:18:35.378Z,7.57
2022-12-23T06:21:03.885Z,7.46
2022-12-23T06:23:32.065Z,7.12
2022-12-23T06:26:02.260Z,6.66
2022-12-23T06:28:30.496Z,6.37
2022-12-23T06:30:58.763Z,6.36
2022-12-23T06:33:26.811Z,6.12
2022-12-23T06:35:55.084Z,5.82
2022-12-23T06:38:23.273Z,5.91
2022-12-23T06:40:51.350Z,6.05
2022-12-23T06:43:19.520Z,6.19
2022-12-23T06:45:48.809Z,6.19
2022-12-23T06:48:17.555Z,6.18
2022-12-23T06:50:46.600Z,6.23
2022-12-23T06:53:14.760Z,6.49
2022-12-23T06:55:43.323Z,6.54
2022-12-23T06:58:11.427Z,6.54
2022-12-23T07:00:39.672Z,6.63
2022-12-23T07:03:07.832Z,6.78
2022-12-23T07:05:37.541Z,6.91
2022-12-23T07:08:06.292Z,6.94
2022-12-23T07:10:34.745Z,7.02
2022-12-23T07:13:02.921Z,7.11
2022-12-23T07:15:31.060Z,7.07
2022-12-23T07:17:59.244Z,7.01
2022-12-23T07:20:27.403Z,7.27
2022-12-23T07:22:57.230Z,7.77
2022-12-23T07:25:25.267Z,8.37
2022-12-23T07:27:55.144Z,8.81
2022-12-23T07:30:23.680Z,9.16
2022-12-23T07:32:52.007Z,9.51
2022-12-23T07:35:20.422Z,9.78
2022-12-23T07:37:53.873Z,9.64
2022-12-23T07:40:23.599Z,9.36
2022-12-23T07:42:56.846Z,9.51
2022-12-23T07:45:27.603Z,9.59
2022-12-23T07:47:57.587Z,9.32
2022-12-23T07:50:27.104Z,9.17
2022-12-23T07:52:56.278Z,9.18
2022-12-23T07:55:24.552Z,9.27
2022-12-23T07:57:53.729Z,9.19
2022-12-23T08:00:22.334Z,9.07
2022-12-23T08:02:50.655Z,8.97
2022-12-23T08:05:19.103Z,8.91
2022-12-23T08:07:49.925Z,9.01
2022-12-23T08:10:18.096Z,9.14
2022-12-23T08:12:46.718Z,9.21
2022-12-23T08:15:15.067Z,9.18
2022-12-23T08:17:43.203Z,8.59
2022-12-23T08:20:12.014Z,8.10
2022-12-23T08:22:40.199Z,8.15
2022-12-23T08:25:08.888Z,8.49
2022-12-23T08:27:37.270Z,8.77
2022-12-23T08:30:06.453Z,8.60
2022-12-23T08:32:34.621Z,8.32
2022-12-23T08:35:02.712Z,8.19
2022-12-23T08:37:31.174Z,7.57
2022-12-23T08:39:59.352Z,7.11
2022-12-23T08:42:27.446Z,6.95
2022-12-23T08:44:55.586Z,7.14
2022-12-23T08:47:23.656Z,7.61
2022-12-23T08:49:51.730Z,8.09
2022-12-23T08:52:19.908Z,8.44
2022-12-23T08:54:48.094Z,8.79
2022-12-23T08:57:16.281Z,8.94
2022-12-23T08:59:44.520Z,9.08
2022-12-23T09:02:12.848Z,9.14
2022-12-23T09:04:41.093Z,8.83
2022-12-23T09:07:09.155Z,8.93
2022-12-23T09:09:38.744Z,9.22
2022-12-23T09:12:07.038Z,9.50
2022-12-23T09:14:35.276Z,9.61
2022-12-23T09:17:03.336Z,9.52
2022-12-23T09:19:31.544Z,9.53
2022-12-23T09:21:59.700Z,9.48
2022-12-23T09:24:27.811Z,9.37
2022-12-23T09:26:55.900Z,9.30
2022-12-23T09:29:23.914Z,9.41
2022-12-23T09:31:51.948Z,9.58
2022-12-23T09:34:20.175Z,9.78
2022-12-23T09:36:54.918Z,9.89
2022-12-23T09:39:24.412Z,9.76
2022-12-23T09:42:01.769Z,9.74
2022-12-23T09:44:55.366Z,9.89
2022-12-23T09:47:27.071Z,9.99
2022-12-23T09:50:01.000Z,10.06
2022-12-23T09:52:46.629Z,10.20
2022-12-23T09:55:15.944Z,10.47
2022-12-23T09:58:01.272Z,10.68
2022-12-23T10:00:39.030Z,10.93
2022-12-23T10:03:13.405Z,11.15
2022-12-23T10:05:59.405Z,11.30
2022-12-23T10:08:41.830Z,11.35
2022-12-23T10:11:16.495Z,11.50
2022-12-23T10:13:56.986Z,11.76
2022-12-23T10:16:32.498Z,11.90
2022-12-23T10:19:16.071Z,11.97
2022-12-23T10:21:56.417Z,12.04
2022-12-23T10:24:38.842Z,11.97
2022-12-23T10:27:24.438Z,11.88
2022-12-23T10:29:52.501Z,11.85
2022-12-23T10:32:27.253Z,11.81
2022-12-23T10:34:58.555Z,11.55
2022-12-23T10:37:45.261Z,11.34
2022-12-23T10:40:19.617Z,11.08
2022-12-23T10:42:50.834Z,11.10
2022-12-23T10:45:31.514Z,11.06
2022-12-23T10:48:21.064Z,10.84
2022-12-23T10:50:58.965Z,10.76
2022-12-23T10:53:46.081Z,10.64
2022-12-23T10:56:15.209Z,10.63
2022-12-23T10:58:46.847Z,10.48
2022-12-23T11:01:26.015Z,10.32
2022-12-23T11:04:02.614Z,10.23
2022-12-23T11:06:37.070Z,10.09
2022-12-23T11:09:11.744Z,9.91
2022-12-23T11:12:02.060Z,9.72
2022-12-23T11:14:41.747Z,9.59
2022-12-23T11:17:31.670Z,9.45
2022-12-23T11:20:20.362Z,9.25
2022-12-23T11:22:54.137Z,9.10
2022-12-23T11:25:32.089Z,8.92
2022-12-23T11:28:22.177Z,8.58
2022-12-23T11:30:57.245Z,8.60
2022-12-23T11:33:28.436Z,8.77
2022-12-23T11:36:14.412Z,8.88
2022-12-23T11:38:51.900Z,8.84
2022-12-23T11:41:27.860Z,8.76
2022-12-23T11:44:03.724Z,8.81
2022-12-23T11:46:33.615Z,9.08
2022-12-23T11:49:14.011Z,9.34
2022-12-23T11:51:48.639Z,9.57
2022-12-23T11:54:19.951Z,9.69
2022-12-23T11:56:51.680Z,9.73
2022-12-23T11:59:41.420Z,9.74
2022-12-23T12:02:19.104Z,9.83
2022-12-23T12:05:02.711Z,9.88
2022-12-23T12:07:31.632Z,9.24
2022-12-23T12:10:01.513Z,9.03
2022-12-23T12:12:30.473Z,8.93
2022-12-23T12:15:00.545Z,8.79
2022-12-23T12:17:37.890Z,8.78
2022-12-23T12:20:06.593Z,8.85
2022-12-23T12:22:54.739Z,8.96
2022-12-23T12:25:53.745Z,9.06
2022-12-23T12:28:26.316Z,8.72
2022-12-23T12:31:03.370Z,8.67
2022-12-23T12:33:39.808Z,8.65
2022-12-23T12:36:33.282Z,8.60
2022-12-23T12:39:01.364Z,8.61
2022-12-23T12:41:37.015Z,8.64
2022-12-23T12:44:22.155Z,8.56
2022-12-23T12:46:56.095Z,8.60
2022-12-23T12:49:35.899Z,8.61
2022-12-23T12:52:12.009Z,8.50
2022-12-23T12:54:56.549Z,8.59
2022-12-23T12:57:25.201Z,8.73
2022-12-23T13:00:03.567Z,8.79
2022-12-23T13:02:43.974Z,8.95
2022-12-23T13:05:41.594Z,9.04
2022-12-23T13:08:43.193Z,8.91
2022-12-23T13:11:34.470Z,8.77
2022-12-23T13:14:22.770Z,8.82
2022-12-23T13:17:09.889Z,8.94
2022-12-23T13:19:56.874Z,8.92
2022-12-23T13:22:32.631Z,8.98
2022-12-23T13:25:05.550Z,9.10
2022-12-23T13:28:15.939Z,9.12
2022-12-23T13:30:51.563Z,9.06
2022-12-23T13:33:39.476Z,9.13
2022-12-23T13:36:40.110Z,9.14
2022-12-23T13:39:32.711Z,9.13
2022-12-23T13:42:05.963Z,8.96
2022-12-23T13:44:35.478Z,8.87
2022-12-23T13:47:22.392Z,8.82
2022-12-23T13:49:50.370Z,8.85
2022-12-23T13:52:32.990Z,8.92
2022-12-23T13:55:26.147Z,8.93
2022-12-23T13:58:13.633Z,8.98
2022-12-23T14:00:41.727Z,8.99
2022-12-23T14:03:09.927Z,9.02
2022-12-23T14:05:38.961Z,9.11
2022-12-23T14:08:19.760Z,9.11
2022-12-23T14:10:59.120Z,9.03
2022-12-23T14:13:30.713Z,8.87
2022-12-23T14:16:40.209Z,8.80
2022-12-23T14:19:30.121Z,8.79
2022-12-23T14:22:19.868Z,8.86
2022-12-23T14:24:59.824Z,9.03
2022-12-23T14:27:42.771Z,9.33
2022-12-23T14:30:36.410Z,9.60
2022-12-23T14:33:38.181Z,9.78
2022-12-23T14:36:26.931Z,9.81
2022-12-23T14:39:13.530Z,9.90
2022-12-23T14:41:47.742Z,9.96
2022-12-23T14:44:43.792Z,9.92
2022-12-23T14:47:35.702Z,9.83
2022-12-23T14:50:34.376Z,9.67
2022-12-23T14:53:24.985Z,9.51
2022-12-23T14:56:19.039Z,9.44
2022-12-23T14:59:24.196Z,9.20
2022-12-23T15:02:14.776Z,8.98
2022-12-23T15:04:50.978Z,8.81
2022-12-23T15:07:21.981Z,8.65
2022-12-23T15:10:02.788Z,8.48
2022-12-23T15:12:35.963Z,8.24
2022-12-23T15:15:21.554Z,8.00
2022-12-23T15:18:12.112Z,7.62
2022-12-23T15:20:40.240Z,7.27
2022-12-23T15:23:10.202Z,7.06
2022-12-23T15:25:46.095Z,6.76
2022-12-23T15:28:19.734Z,6.56
2022-12-23T15:30:52.381Z,6.57
2022-12-23T15:36:14.633Z,6.47
2022-12-23T15:38:42.681Z,6.55
2022-12-23T15:41:18.794Z,6.57
2022-12-23T15:43:47.009Z,6.52
2022-12-23T15:46:29.925Z,6.45
2022-12-23T15:48:59.042Z,6.21
2022-12-23T15:52:05.914Z,6.05
2022-12-23T15:54:35.224Z,5.99
2022-12-23T15:57:04.633Z,6.04
2022-12-23T15:59:37.491Z,6.07
2022-12-23T16:05:45.711Z,6.48
2022-12-23T16:08:15.354Z,6.50
2022-12-23T16:11:11.864Z,6.20
2022-12-23T16:13:46.675Z,6.36
2022-12-23T16:16:38.123Z,6.35
2022-12-23T16:19:26.775Z,6.06
2022-12-23T16:21:55.152Z,5.83
2022-12-23T16:24:23.190Z,5.91
2022-12-23T16:26:54.519Z,5.98
2022-12-23T16:29:22.630Z,6.08
2022-12-23T16:31:57.435Z,6.16
2022-12-23T16:34:31.583Z,6.20
2022-12-23T16:36:59.843Z,6.20
2022-12-23T16:39:28.116Z,6.19
2022-12-23T16:41:56.290Z,6.19
2022-12-23T16:44:24.316Z,6.23
2022-12-23T16:46:52.452Z,6.29
2022-12-23T16:49:27.909Z,6.28
2022-12-23T16:51:56.268Z,6.24
2022-12-23T16:54:24.520Z,6.31
2022-12-23T16:56:52.604Z,6.39
2022-12-23T16:59:21.189Z,6.47
2022-12-23T17:01:49.384Z,6.53
2022-12-23T17:04:17.552Z,6.60
2022-12-23T17:06:46.616Z,6.63
2022-12-23T17:09:14.865Z,6.49
2022-12-23T17:11:53.268Z,6.40
2022-12-23T17:14:24.321Z,6.49
2022-12-23T17:16:53.118Z,6.55
2022-12-23T17:19:27.774Z,6.54
2022-12-23T17:22:03.051Z,6.47
2022-12-23T17:24:31.607Z,6.39
2022-12-23T17:26:59.663Z,6.31
2022-12-23T17:29:28.463Z,6.20
2022-12-23T17:31:56.762Z,6.11
2022-12-23T17:34:24.992Z,5.71
2022-12-23T17:36:53.263Z,5.44
2022-12-23T17:39:22.356Z,5.15
2022-12-23T17:41:50.528Z,5.00
2022-12-23T17:44:18.932Z,4.92
2022-12-23T17:46:47.567Z,4.80
2022-12-23T17:49:15.740Z,4.62
2022-12-23T17:51:44.256Z,4.51
2022-12-23T17:54:22.957Z,4.36
2022-12-23T17:56:52.713Z,4.24
2022-12-23T17:59:21.947Z,4.23
2022-12-23T18:01:50.696Z,4.23
2022-12-23T18:04:19.133Z,4.43
2022-12-23T18:06:47.327Z,4.62
2022-12-23T18:09:16.882Z,4.88
2022-12-23T18:11:48.134Z,5.13
2022-12-23T18:14:22.009Z,5.38
2022-12-23T18:16:50.323Z,5.61
2022-12-23T18:19:20.861Z,5.76
2022-12-23T18:21:50.678Z,5.89
2022-12-23T18:24:18.964Z,5.98
2022-12-23T18:26:47.824Z,6.11
2022-12-23T18:29:15.928Z,6.26
2022-12-23T18:31:51.391Z,6.44
2022-12-23T18:34:21.317Z,6.62
2022-12-23T18:36:51.963Z,6.76
2022-12-23T18:39:21.112Z,6.82
2022-12-23T18:41:49.280Z,6.82
2022-12-23T18:44:22.957Z,6.77
2022-12-23T18:46:51.062Z,6.85
2022-12-23T18:49:19.356Z,6.94
2022-12-23T18:51:47.671Z,7.02
2022-12-23T18:54:16.678Z,6.64
2022-12-23T18:56:45.301Z,5.99
2022-12-23T18:59:22.816Z,5.61
2022-12-23T19:01:52.641Z,5.11
2022-12-23T19:04:20.893Z,4.92
2022-12-23T19:06:49.020Z,4.83
2022-12-23T19:09:20.285Z,4.91
2022-12-23T19:11:50.246Z,5.15
2022-12-23T19:14:18.602Z,5.39
2022-12-23T19:16:51.501Z,5.58
2022-12-23T19:19:21.906Z,5.92
2022-12-23T19:21:50.071Z,6.24
2022-12-23T19:24:18.235Z,6.44
2022-12-23T19:26:46.584Z,6.61
2022-12-23T19:29:14.762Z,6.75
2022-12-23T19:31:43.005Z,6.83
2022-12-23T19:34:14.885Z,6.87
2022-12-23T19:36:44.668Z,6.90
2022-12-23T19:39:16.824Z,6.91
2022-12-23T19:41:45.909Z,6.98
2022-12-23T19:44:14.755Z,7.07
2022-12-23T19:46:42.990Z,7.15
2022-12-23T19:49:17.479Z,7.25
2022-12-23T19:51:49.025Z,7.25
2022-12-23T19:54:17.746Z,7.21
2022-12-23T19:56:45.870Z,7.19
2022-12-23T19:59:14.141Z,7.21
2022-12-23T20:01:42.382Z,7.30
2022-12-23T20:04:11.099Z,7.41
2022-12-23T20:06:41.109Z,7.39
2022-12-23T20:09:12.614Z,7.24
2022-12-23T20:11:43.900Z,7.03
2022-12-23T20:14:14.170Z,7.04
2022-12-23T20:16:42.460Z,7.16
2022-12-23T20:19:11.437Z,7.25
2022-12-23T20:21:39.571Z,7.27
2022-12-23T20:24:08.354Z,7.09
2022-12-23T20:26:36.831Z,6.89
2022-12-23T20:29:05.556Z,6.68
2022-12-23T20:31:37.611Z,6.57
2022-12-23T20:34:08.325Z,6.51
2022-12-23T20:36:36.985Z,6.48
2022-12-23T20:39:06.282Z,6.48
2022-12-23T20:41:34.674Z,6.22
2022-12-23T20:44:34.017Z,6.06
2022-12-23T20:46:51.729Z,6.06
2022-12-23T20:49:19.944Z,6.19
2022-12-23T20:51:47.965Z,6.43
2022-12-23T20:54:16.123Z,6.72
2022-12-23T20:56:44.305Z,6.90
2022-12-23T20:59:12.688Z,6.99
2022-12-23T21:01:41.710Z,6.98
2022-12-23T21:04:13.030Z,6.97
2022-12-23T21:06:41.547Z,6.69
2022-12-23T21:09:12.380Z,6.45
2022-12-23T21:11:43.438Z,6.44
2022-12-23T21:14:12.925Z,6.34
2022-12-23T21:16:41.467Z,6.35
2022-12-23T21:19:15.425Z,6.43
2022-12-23T21:21:44.107Z,6.54
2022-12-23T21:24:12.783Z,6.71
2022-12-23T21:26:41.212Z,6.89
2022-12-23T21:29:11.243Z,7.17
2022-12-23T21:31:41.209Z,7.48
2022-12-23T21:34:14.472Z,7.70
2022-12-23T21:36:43.094Z,7.89
2022-12-23T21:39:15.693Z,7.93
2022-12-23T21:41:44.470Z,8.06
2022-12-23T21:44:14.937Z,8.23
2022-12-23T21:46:43.515Z,8.26
2022-12-23T21:49:11.819Z,8.22
2022-12-23T21:51:41.553Z,7.99
2022-12-23T21:54:11.500Z,7.81
2022-12-23T21:56:41.399Z,7.66
2022-12-23T21:59:14.841Z,7.38
2022-12-23T22:01:44.068Z,7.04
2022-12-23T22:04:13.035Z,6.88
2022-12-23T22:06:46.227Z,6.77
2022-12-23T22:09:17.905Z,6.63
2022-12-23T22:11:47.131Z,6.69
2022-12-23T22:14:17.561Z,6.71
2022-12-23T22:16:45.888Z,6.81
2022-12-23T22:19:14.692Z,6.97
2022-12-23T22:21:42.975Z,7.09
2022-12-23T22:24:11.573Z,7.14
2022-12-23T22:26:40.464Z,7.26
2022-12-23T22:29:08.576Z,7.26
2022-12-23T22:31:47.100Z,7.51
2022-12-23T22:34:18.402Z,7.71
2022-12-23T22:36:47.477Z,7.89
2022-12-23T22:39:21.206Z,7.96
2022-12-23T22:41:51.559Z,7.84
2022-12-23T22:44:21.261Z,7.68
2022-12-23T22:46:49.494Z,7.72
2022-12-23T22:49:18.122Z,7.86
2022-12-23T22:51:46.356Z,8.00
2022-12-23T22:54:14.737Z,8.05
2022-12-23T22:56:43.111Z,8.02
2022-12-23T22:59:23.565Z,7.99
2022-12-23T23:01:53.235Z,8.01
2022-12-23T23:04:21.570Z,8.08
2022-12-23T23:06:49.946Z,8.05
2022-12-23T23:09:20.666Z,7.98
2022-12-23T23:11:50.387Z,8.07
2022-12-23T23:14:18.937Z,7.98
2022-12-23T23:16:47.433Z,7.79
2022-12-23T23:19:17.145Z,7.56
2022-12-23T23:21:45.342Z,7.21
2022-12-23T23:24:13.648Z,7.02
2022-12-23T23:26:41.766Z,6.90
2022-12-23T23:29:09.874Z,6.88
2022-12-23T23:31:42.990Z,7.03
2022-12-23T23:34:13.021Z,7.05
2022-12-23T23:36:41.662Z,7.09
2022-12-23T23:39:12.351Z,7.20
2022-12-23T23:41:41.589Z,7.35
2022-12-23T23:44:10.241Z,7.49
2022-12-23T23:46:39.237Z,7.60
2022-12-23T23:49:07.369Z,7.62
2022-12-23T23:51:35.453Z,7.67
2022-12-23T23:54:03.643Z,7.74
2022-12-23T23:56:37.877Z,7.78
2022-12-23T23:59:09.019Z,7.88
